sensor_id;sensor_type;location;lat;lon;timestamp;P1;durP1;ratioP1;P2;durP2;ratioP2
55212;SDS011;41083;52.932;6.674;2023-06-24T00:00:55;4.22;;;2.03;;
55212;SDS011;41083;52.932;6.674;2023-06-24T00:03:23;8.30;;;2.30;;
55212;SDS011;41083;52.932;6.674;2023-06-24T00:05:49;3.97;;;2.10;;
55212;SDS011;41083;52.932;6.674;2023-06-24T00:08:15;3.80;;;2.30;;
55212;SDS011;41083;52.932;6.674;2023-06-24T00:10:44;4.10;;;1.85;;
55212;SDS011;41083;52.932;6.674;2023-06-24T00:13:11;3.72;;;2.10;;
55212;SDS011;41083;52.932;6.674;2023-06-24T00:15:38;4.80;;;2.20;;
55212;SDS011;41083;52.932;6.674;2023-06-24T00:18:10;4.65;;;2.08;;
55212;SDS011;41083;52.932;6.674;2023-06-24T00:20:36;5.05;;;2.30;;
55212;SDS011;41083;52.932;6.674;2023-06-24T00:23:03;3.42;;;2.20;;
55212;SDS011;41083;52.932;6.674;2023-06-24T00:25:29;6.20;;;2.20;;
55212;SDS011;41083;52.932;6.674;2023-06-24T00:27:55;4.93;;;2.25;;
55212;SDS011;41083;52.932;6.674;2023-06-24T00:30:20;5.00;;;2.42;;
55212;SDS011;41083;52.932;6.674;2023-06-24T00:32:46;4.45;;;2.20;;
55212;SDS011;41083;52.932;6.674;2023-06-24T00:35:12;5.90;;;2.70;;
55212;SDS011;41083;52.932;6.674;2023-06-24T00:37:38;3.80;;;1.95;;
55212;SDS011;41083;52.932;6.674;2023-06-24T00:40:04;3.72;;;1.98;;
55212;SDS011;41083;52.932;6.674;2023-06-24T00:42:30;4.05;;;1.92;;
55212;SDS011;41083;52.932;6.674;2023-06-24T00:44:56;4.10;;;2.35;;
55212;SDS011;41083;52.932;6.674;2023-06-24T00:47:22;4.93;;;2.50;;
55212;SDS011;41083;52.932;6.674;2023-06-24T00:49:48;5.50;;;2.42;;
55212;SDS011;41083;52.932;6.674;2023-06-24T00:52:15;3.70;;;2.30;;
55212;SDS011;41083;52.932;6.674;2023-06-24T00:54:44;4.53;;;2.22;;
55212;SDS011;41083;52.932;6.674;2023-06-24T00:57:10;4.00;;;2.30;;
55212;SDS011;41083;52.932;6.674;2023-06-24T00:59:37;4.15;;;2.30;;
55212;SDS011;41083;52.932;6.674;2023-06-24T01:02:03;4.60;;;2.50;;
55212;SDS011;41083;52.932;6.674;2023-06-24T01:04:30;5.25;;;2.42;;
55212;SDS011;41083;52.932;6.674;2023-06-24T01:06:58;7.93;;;2.15;;
55212;SDS011;41083;52.932;6.674;2023-06-24T01:09:24;3.88;;;2.33;;
55212;SDS011;41083;52.932;6.674;2023-06-24T01:11:51;5.50;;;2.45;;
55212;SDS011;41083;52.932;6.674;2023-06-24T01:14:17;4.25;;;2.53;;
55212;SDS011;41083;52.932;6.674;2023-06-24T01:30:03;4.68;;;2.22;;
55212;SDS011;41083;52.932;6.674;2023-06-24T01:32:43;4.85;;;2.05;;
55212;SDS011;41083;52.932;6.674;2023-06-24T01:35:13;4.35;;;2.33;;
55212;SDS011;41083;52.932;6.674;2023-06-24T01:37:46;5.45;;;1.95;;
55212;SDS011;41083;52.932;6.674;2023-06-24T01:40:26;5.70;;;2.60;;
55212;SDS011;41083;52.932;6.674;2023-06-24T01:42:53;5.75;;;2.60;;
55212;SDS011;41083;52.932;6.674;2023-06-24T01:45:23;5.40;;;2.38;;
55212;SDS011;41083;52.932;6.674;2023-06-24T01:47:54;5.72;;;2.40;;
55212;SDS011;41083;52.932;6.674;2023-06-24T01:50:48;5.55;;;2.30;;
55212;SDS011;41083;52.932;6.674;2023-06-24T01:53:32;6.15;;;2.20;;
55212;SDS011;41083;52.932;6.674;2023-06-24T01:56:03;4.35;;;2.20;;
55212;SDS011;41083;52.932;6.674;2023-06-24T01:58:32;4.30;;;2.38;;
55212;SDS011;41083;52.932;6.674;2023-06-24T02:01:00;5.05;;;2.50;;
55212;SDS011;41083;52.932;6.674;2023-06-24T02:03:27;5.22;;;2.58;;
55212;SDS011;41083;52.932;6.674;2023-06-24T02:05:54;5.32;;;2.60;;
55212;SDS011;41083;52.932;6.674;2023-06-24T02:08:23;4.13;;;2.42;;
55212;SDS011;41083;52.932;6.674;2023-06-24T02:10:49;5.78;;;3.00;;
55212;SDS011;41083;52.932;6.674;2023-06-24T02:13:16;7.20;;;2.80;;
55212;SDS011;41083;52.932;6.674;2023-06-24T02:15:44;7.30;;;2.22;;
55212;SDS011;41083;52.932;6.674;2023-06-24T02:18:12;5.13;;;2.38;;
55212;SDS011;41083;52.932;6.674;2023-06-24T02:20:40;4.78;;;2.80;;
55212;SDS011;41083;52.932;6.674;2023-06-24T02:23:09;5.00;;;2.40;;
55212;SDS011;41083;52.932;6.674;2023-06-24T02:25:36;4.57;;;2.53;;
55212;SDS011;41083;52.932;6.674;2023-06-24T02:28:05;6.60;;;2.83;;
55212;SDS011;41083;52.932;6.674;2023-06-24T02:30:34;5.03;;;2.40;;
55212;SDS011;41083;52.932;6.674;2023-06-24T02:33:03;5.57;;;2.70;;
55212;SDS011;41083;52.932;6.674;2023-06-24T02:35:30;6.28;;;3.15;;
55212;SDS011;41083;52.932;6.674;2023-06-24T02:37:57;7.50;;;2.78;;
55212;SDS011;41083;52.932;6.674;2023-06-24T02:40:23;4.97;;;2.40;;
55212;SDS011;41083;52.932;6.674;2023-06-24T02:42:50;4.95;;;2.20;;
55212;SDS011;41083;52.932;6.674;2023-06-24T02:45:15;5.72;;;2.65;;
55212;SDS011;41083;52.932;6.674;2023-06-24T02:47:41;6.22;;;3.17;;
55212;SDS011;41083;52.932;6.674;2023-06-24T02:50:10;5.80;;;3.08;;
55212;SDS011;41083;52.932;6.674;2023-06-24T02:52:39;7.80;;;2.97;;
55212;SDS011;41083;52.932;6.674;2023-06-24T02:55:05;5.80;;;3.13;;
55212;SDS011;41083;52.932;6.674;2023-06-24T02:57:32;6.97;;;3.55;;
55212;SDS011;41083;52.932;6.674;2023-06-24T03:00:01;6.70;;;3.30;;
55212;SDS011;41083;52.932;6.674;2023-06-24T03:02:30;6.78;;;3.10;;
55212;SDS011;41083;52.932;6.674;2023-06-24T03:04:56;4.95;;;2.65;;
55212;SDS011;41083;52.932;6.674;2023-06-24T03:07:23;6.43;;;2.80;;
55212;SDS011;41083;52.932;6.674;2023-06-24T03:09:50;6.03;;;2.85;;
55212;SDS011;41083;52.932;6.674;2023-06-24T03:12:17;6.15;;;2.75;;
55212;SDS011;41083;52.932;6.674;2023-06-24T03:14:42;7.13;;;3.60;;
55212;SDS011;41083;52.932;6.674;2023-06-24T03:17:08;5.68;;;2.60;;
55212;SDS011;41083;52.932;6.674;2023-06-24T03:19:34;6.30;;;2.95;;
55212;SDS011;41083;52.932;6.674;2023-06-24T03:22:00;6.45;;;3.22;;
55212;SDS011;41083;52.932;6.674;2023-06-24T03:24:25;7.68;;;3.45;;
55212;SDS011;41083;52.932;6.674;2023-06-24T03:26:51;5.43;;;2.92;;
55212;SDS011;41083;52.932;6.674;2023-06-24T03:29:21;10.55;;;3.80;;
55212;SDS011;41083;52.932;6.674;2023-06-24T03:31:50;7.95;;;3.25;;
55212;SDS011;41083;52.932;6.674;2023-06-24T03:34:15;6.15;;;3.22;;
55212;SDS011;41083;52.932;6.674;2023-06-24T03:36:44;9.73;;;3.00;;
55212;SDS011;41083;52.932;6.674;2023-06-24T03:39:10;7.28;;;3.45;;
55212;SDS011;41083;52.932;6.674;2023-06-24T03:41:35;7.72;;;3.40;;
55212;SDS011;41083;52.932;6.674;2023-06-24T03:44:01;6.75;;;3.20;;
55212;SDS011;41083;52.932;6.674;2023-06-24T03:46:27;5.90;;;3.05;;
55212;SDS011;41083;52.932;6.674;2023-06-24T03:48:57;6.18;;;2.97;;
55212;SDS011;41083;52.932;6.674;2023-06-24T03:51:24;6.75;;;3.40;;
55212;SDS011;41083;52.932;6.674;2023-06-24T03:53:49;6.47;;;3.47;;
55212;SDS011;41083;52.932;6.674;2023-06-24T03:56:16;7.55;;;3.03;;
55212;SDS011;41083;52.932;6.674;2023-06-24T03:58:42;7.65;;;3.25;;
55212;SDS011;41083;52.932;6.674;2023-06-24T04:01:07;8.10;;;3.33;;
55212;SDS011;41083;52.932;6.674;2023-06-24T04:03:34;6.15;;;3.35;;
55212;SDS011;41083;52.932;6.674;2023-06-24T04:06:00;6.38;;;3.25;;
55212;SDS011;41083;52.932;6.674;2023-06-24T04:08:26;6.72;;;3.08;;
55212;SDS011;41083;52.932;6.674;2023-06-24T04:10:56;6.53;;;3.22;;
55212;SDS011;41083;52.932;6.674;2023-06-24T04:13:28;6.13;;;3.17;;
55212;SDS011;41083;52.932;6.674;2023-06-24T04:15:54;7.28;;;3.35;;
55212;SDS011;41083;52.932;6.674;2023-06-24T04:18:20;5.97;;;3.17;;
55212;SDS011;41083;52.932;6.674;2023-06-24T04:20:45;6.07;;;3.20;;
55212;SDS011;41083;52.932;6.674;2023-06-24T04:23:12;6.43;;;2.95;;
55212;SDS011;41083;52.932;6.674;2023-06-24T04:25:39;7.70;;;3.90;;
55212;SDS011;41083;52.932;6.674;2023-06-24T04:28:05;7.72;;;3.17;;
55212;SDS011;41083;52.932;6.674;2023-06-24T04:30:31;7.72;;;3.17;;
55212;SDS011;41083;52.932;6.674;2023-06-24T04:32:57;8.35;;;3.83;;
55212;SDS011;41083;52.932;6.674;2023-06-24T04:35:24;7.05;;;3.10;;
55212;SDS011;41083;52.932;6.674;2023-06-24T04:37:49;6.82;;;3.33;;
55212;SDS011;41083;52.932;6.674;2023-06-24T04:40:16;8.63;;;3.80;;
55212;SDS011;41083;52.932;6.674;2023-06-24T04:42:43;7.03;;;3.58;;
55212;SDS011;41083;52.932;6.674;2023-06-24T04:45:09;5.93;;;3.10;;
55212;SDS011;41083;52.932;6.674;2023-06-24T04:47:35;8.23;;;3.55;;
55212;SDS011;41083;52.932;6.674;2023-06-24T04:50:01;7.07;;;3.22;;
55212;SDS011;41083;52.932;6.674;2023-06-24T04:52:27;6.65;;;2.97;;
55212;SDS011;41083;52.932;6.674;2023-06-24T04:54:52;8.15;;;2.85;;
55212;SDS011;41083;52.932;6.674;2023-06-24T04:57:28;7.97;;;2.92;;
55212;SDS011;41083;52.932;6.674;2023-06-24T04:59:55;7.95;;;3.35;;
55212;SDS011;41083;52.932;6.674;2023-06-24T05:02:22;5.85;;;2.90;;
55212;SDS011;41083;52.932;6.674;2023-06-24T05:04:48;7.80;;;3.55;;
55212;SDS011;41083;52.932;6.674;2023-06-24T05:07:13;6.40;;;3.13;;
55212;SDS011;41083;52.932;6.674;2023-06-24T05:09:39;7.22;;;3.50;;
55212;SDS011;41083;52.932;6.674;2023-06-24T05:12:05;8.38;;;3.20;;
55212;SDS011;41083;52.932;6.674;2023-06-24T05:14:31;6.97;;;3.55;;
55212;SDS011;41083;52.932;6.674;2023-06-24T05:16:59;7.50;;;3.35;;
55212;SDS011;41083;52.932;6.674;2023-06-24T05:19:24;7.75;;;3.35;;
55212;SDS011;41083;52.932;6.674;2023-06-24T05:21:50;8.52;;;3.63;;
55212;SDS011;41083;52.932;6.674;2023-06-24T05:24:16;7.20;;;3.60;;
55212;SDS011;41083;52.932;6.674;2023-06-24T05:26:41;8.95;;;4.05;;
55212;SDS011;41083;52.932;6.674;2023-06-24T05:29:07;6.68;;;3.25;;
55212;SDS011;41083;52.932;6.674;2023-06-24T05:31:33;6.35;;;3.15;;
55212;SDS011;41083;52.932;6.674;2023-06-24T05:33:58;6.10;;;3.35;;
55212;SDS011;41083;52.932;6.674;2023-06-24T05:36:24;9.25;;;4.00;;
55212;SDS011;41083;52.932;6.674;2023-06-24T05:38:49;6.85;;;3.65;;
55212;SDS011;41083;52.932;6.674;2023-06-24T05:41:15;8.32;;;3.50;;
55212;SDS011;41083;52.932;6.674;2023-06-24T05:43:42;9.30;;;3.75;;
55212;SDS011;41083;52.932;6.674;2023-06-24T05:46:08;10.95;;;4.13;;
55212;SDS011;41083;52.932;6.674;2023-06-24T05:48:34;7.10;;;3.88;;
55212;SDS011;41083;52.932;6.674;2023-06-24T05:50:59;9.43;;;3.95;;
55212;SDS011;41083;52.932;6.674;2023-06-24T05:53:25;9.27;;;3.92;;
55212;SDS011;41083;52.932;6.674;2023-06-24T05:55:50;8.35;;;3.85;;
55212;SDS011;41083;52.932;6.674;2023-06-24T05:58:16;8.18;;;4.22;;
55212;SDS011;41083;52.932;6.674;2023-06-24T06:00:42;6.55;;;3.53;;
55212;SDS011;41083;52.932;6.674;2023-06-24T06:03:07;7.28;;;4.20;;
55212;SDS011;41083;52.932;6.674;2023-06-24T06:05:34;8.80;;;3.58;;
55212;SDS011;41083;52.932;6.674;2023-06-24T06:07:59;6.68;;;3.30;;
55212;SDS011;41083;52.932;6.674;2023-06-24T06:10:25;9.20;;;3.42;;
55212;SDS011;41083;52.932;6.674;2023-06-24T06:12:51;9.63;;;4.40;;
55212;SDS011;41083;52.932;6.674;2023-06-24T06:15:17;10.18;;;3.90;;
55212;SDS011;41083;52.932;6.674;2023-06-24T06:17:44;6.72;;;3.45;;
55212;SDS011;41083;52.932;6.674;2023-06-24T06:20:11;8.02;;;4.15;;
55212;SDS011;41083;52.932;6.674;2023-06-24T06:22:36;8.90;;;4.38;;
55212;SDS011;41083;52.932;6.674;2023-06-24T06:25:06;8.38;;;3.90;;
55212;SDS011;41083;52.932;6.674;2023-06-24T06:27:32;9.55;;;4.20;;
55212;SDS011;41083;52.932;6.674;2023-06-24T06:29:58;8.23;;;3.85;;
55212;SDS011;41083;52.932;6.674;2023-06-24T06:32:23;7.95;;;3.78;;
55212;SDS011;41083;52.932;6.674;2023-06-24T06:34:49;7.47;;;3.58;;
55212;SDS011;41083;52.932;6.674;2023-06-24T06:37:14;8.43;;;3.92;;
55212;SDS011;41083;52.932;6.674;2023-06-24T06:39:40;7.80;;;4.25;;
55212;SDS011;41083;52.932;6.674;2023-06-24T06:42:06;7.82;;;4.32;;
55212;SDS011;41083;52.932;6.674;2023-06-24T06:44:32;8.57;;;3.78;;
55212;SDS011;41083;52.932;6.674;2023-06-24T06:46:57;9.68;;;4.20;;
55212;SDS011;41083;52.932;6.674;2023-06-24T06:49:23;10.05;;;4.25;;
55212;SDS011;41083;52.932;6.674;2023-06-24T06:51:48;8.43;;;4.72;;
55212;SDS011;41083;52.932;6.674;2023-06-24T06:54:14;10.45;;;4.05;;
55212;SDS011;41083;52.932;6.674;2023-06-24T06:56:40;8.10;;;3.88;;
55212;SDS011;41083;52.932;6.674;2023-06-24T06:59:05;7.75;;;4.00;;
55212;SDS011;41083;52.932;6.674;2023-06-24T07:01:31;7.85;;;4.32;;
55212;SDS011;41083;52.932;6.674;2023-06-24T07:03:56;7.95;;;4.20;;
55212;SDS011;41083;52.932;6.674;2023-06-24T07:06:22;7.30;;;4.30;;
55212;SDS011;41083;52.932;6.674;2023-06-24T07:08:48;9.00;;;4.00;;
55212;SDS011;41083;52.932;6.674;2023-06-24T07:11:13;9.82;;;4.35;;
55212;SDS011;41083;52.932;6.674;2023-06-24T07:13:39;9.05;;;4.40;;
55212;SDS011;41083;52.932;6.674;2023-06-24T07:16:04;7.75;;;4.15;;
55212;SDS011;41083;52.932;6.674;2023-06-24T07:18:30;8.32;;;4.22;;
55212;SDS011;41083;52.932;6.674;2023-06-24T07:20:56;7.88;;;4.32;;
55212;SDS011;41083;52.932;6.674;2023-06-24T07:23:22;8.27;;;4.38;;
55212;SDS011;41083;52.932;6.674;2023-06-24T07:25:48;6.97;;;3.53;;
55212;SDS011;41083;52.932;6.674;2023-06-24T07:28:13;8.82;;;3.97;;
55212;SDS011;41083;52.932;6.674;2023-06-24T07:30:40;10.52;;;4.45;;
55212;SDS011;41083;52.932;6.674;2023-06-24T07:33:06;10.23;;;4.57;;
55212;SDS011;41083;52.932;6.674;2023-06-24T07:35:32;8.63;;;4.47;;
55212;SDS011;41083;52.932;6.674;2023-06-24T07:37:58;9.07;;;4.22;;
55212;SDS011;41083;52.932;6.674;2023-06-24T07:40:25;10.13;;;4.85;;
55212;SDS011;41083;52.932;6.674;2023-06-24T07:42:50;9.18;;;4.40;;
55212;SDS011;41083;52.932;6.674;2023-06-24T07:45:16;9.27;;;4.35;;
55212;SDS011;41083;52.932;6.674;2023-06-24T07:47:41;9.65;;;4.43;;
55212;SDS011;41083;52.932;6.674;2023-06-24T07:50:07;8.55;;;4.10;;
55212;SDS011;41083;52.932;6.674;2023-06-24T07:52:35;10.15;;;4.18;;
55212;SDS011;41083;52.932;6.674;2023-06-24T07:55:01;7.65;;;3.83;;
55212;SDS011;41083;52.932;6.674;2023-06-24T07:57:28;8.45;;;4.05;;
55212;SDS011;41083;52.932;6.674;2023-06-24T07:59:54;10.18;;;3.45;;
55212;SDS011;41083;52.932;6.674;2023-06-24T08:02:19;6.38;;;3.33;;
55212;SDS011;41083;52.932;6.674;2023-06-24T08:04:45;7.13;;;3.63;;
55212;SDS011;41083;52.932;6.674;2023-06-24T08:07:11;6.75;;;3.78;;
55212;SDS011;41083;52.932;6.674;2023-06-24T08:09:36;10.23;;;4.10;;
55212;SDS011;41083;52.932;6.674;2023-06-24T08:12:02;9.43;;;3.92;;
55212;SDS011;41083;52.932;6.674;2023-06-24T08:14:28;7.57;;;3.83;;
55212;SDS011;41083;52.932;6.674;2023-06-24T08:16:54;8.60;;;3.65;;
55212;SDS011;41083;52.932;6.674;2023-06-24T08:19:19;7.72;;;3.38;;
55212;SDS011;41083;52.932;6.674;2023-06-24T08:21:45;7.40;;;3.85;;
55212;SDS011;41083;52.932;6.674;2023-06-24T08:24:11;6.15;;;3.25;;
55212;SDS011;41083;52.932;6.674;2023-06-24T08:26:36;7.78;;;3.72;;
55212;SDS011;41083;52.932;6.674;2023-06-24T08:29:02;8.52;;;3.28;;
55212;SDS011;41083;52.932;6.674;2023-06-24T08:31:28;7.65;;;3.85;;
55212;SDS011;41083;52.932;6.674;2023-06-24T08:33:53;6.43;;;3.03;;
55212;SDS011;41083;52.932;6.674;2023-06-24T08:36:21;7.22;;;3.85;;
55212;SDS011;41083;52.932;6.674;2023-06-24T08:38:48;7.05;;;3.55;;
55212;SDS011;41083;52.932;6.674;2023-06-24T08:41:13;6.22;;;3.35;;
55212;SDS011;41083;52.932;6.674;2023-06-24T08:43:39;6.38;;;2.97;;
55212;SDS011;41083;52.932;6.674;2023-06-24T08:46:05;4.90;;;2.13;;
55212;SDS011;41083;52.932;6.674;2023-06-24T08:48:31;4.72;;;2.08;;
55212;SDS011;41083;52.932;6.674;2023-06-24T08:51:04;5.13;;;1.77;;
55212;SDS011;41083;52.932;6.674;2023-06-24T08:53:33;6.40;;;2.10;;
55212;SDS011;41083;52.932;6.674;2023-06-24T08:56:02;4.32;;;2.13;;
55212;SDS011;41083;52.932;6.674;2023-06-24T08:58:28;4.55;;;2.22;;
55212;SDS011;41083;52.932;6.674;2023-06-24T09:00:54;4.10;;;1.80;;
55212;SDS011;41083;52.932;6.674;2023-06-24T09:03:21;4.88;;;2.30;;
55212;SDS011;41083;52.932;6.674;2023-06-24T09:05:47;4.78;;;2.40;;
55212;SDS011;41083;52.932;6.674;2023-06-24T09:08:13;5.10;;;2.25;;
55212;SDS011;41083;52.932;6.674;2023-06-24T09:10:40;4.25;;;2.28;;
55212;SDS011;41083;52.932;6.674;2023-06-24T09:13:06;5.68;;;2.90;;
55212;SDS011;41083;52.932;6.674;2023-06-24T09:15:33;6.35;;;2.70;;
55212;SDS011;41083;52.932;6.674;2023-06-24T09:18:02;5.78;;;2.33;;
55212;SDS011;41083;52.932;6.674;2023-06-24T09:20:32;6.35;;;2.63;;
55212;SDS011;41083;52.932;6.674;2023-06-24T09:23:04;6.78;;;2.25;;
55212;SDS011;41083;52.932;6.674;2023-06-24T09:25:30;4.82;;;2.30;;
55212;SDS011;41083;52.932;6.674;2023-06-24T09:28:02;5.70;;;2.33;;
55212;SDS011;41083;52.932;6.674;2023-06-24T09:30:29;4.75;;;2.25;;
55212;SDS011;41083;52.932;6.674;2023-06-24T09:32:54;4.32;;;2.00;;
55212;SDS011;41083;52.932;6.674;2023-06-24T09:35:21;5.72;;;2.00;;
55212;SDS011;41083;52.932;6.674;2023-06-24T09:37:52;3.70;;;1.83;;
55212;SDS011;41083;52.932;6.674;2023-06-24T09:40:21;5.22;;;2.08;;
55212;SDS011;41083;52.932;6.674;2023-06-24T09:42:48;5.95;;;2.10;;
55212;SDS011;41083;52.932;6.674;2023-06-24T09:45:14;4.43;;;1.73;;
55212;SDS011;41083;52.932;6.674;2023-06-24T09:47:39;4.10;;;2.03;;
55212;SDS011;41083;52.932;6.674;2023-06-24T09:50:05;3.35;;;1.65;;
55212;SDS011;41083;52.932;6.674;2023-06-24T09:52:31;4.32;;;1.77;;
55212;SDS011;41083;52.932;6.674;2023-06-24T09:55:00;4.85;;;1.73;;
55212;SDS011;41083;52.932;6.674;2023-06-24T09:57:28;3.28;;;1.70;;
55212;SDS011;41083;52.932;6.674;2023-06-24T09:59:56;5.85;;;2.30;;
55212;SDS011;41083;52.932;6.674;2023-06-24T10:02:23;4.20;;;1.80;;
55212;SDS011;41083;52.932;6.674;2023-06-24T10:04:49;5.75;;;2.20;;
55212;SDS011;41083;52.932;6.674;2023-06-24T10:07:17;4.88;;;2.03;;
55212;SDS011;41083;52.932;6.674;2023-06-24T10:09:43;4.72;;;2.10;;
55212;SDS011;41083;52.932;6.674;2023-06-24T10:12:09;3.47;;;1.73;;
55212;SDS011;41083;52.932;6.674;2023-06-24T10:14:34;2.30;;;1.23;;
55212;SDS011;41083;52.932;6.674;2023-06-24T10:17:03;3.45;;;1.77;;
55212;SDS011;41083;52.932;6.674;2023-06-24T10:19:30;3.33;;;1.20;;
55212;SDS011;41083;52.932;6.674;2023-06-24T10:22:02;3.67;;;1.65;;
55212;SDS011;41083;52.932;6.674;2023-06-24T10:24:34;3.63;;;1.42;;
55212;SDS011;41083;52.932;6.674;2023-06-24T10:27:02;3.60;;;1.90;;
55212;SDS011;41083;52.932;6.674;2023-06-24T10:29:38;2.65;;;1.30;;
55212;SDS011;41083;52.932;6.674;2023-06-24T10:37:00;3.90;;;1.90;;
55212;SDS011;41083;52.932;6.674;2023-06-24T10:50:10;3.30;;;1.65;;
55212;SDS011;41083;52.932;6.674;2023-06-24T10:52:37;2.97;;;1.55;;
55212;SDS011;41083;52.932;6.674;2023-06-24T10:55:07;3.72;;;1.65;;
55212;SDS011;41083;52.932;6.674;2023-06-24T10:57:33;2.80;;;1.45;;
55212;SDS011;41083;52.932;6.674;2023-06-24T11:00:00;3.00;;;1.60;;
55212;SDS011;41083;52.932;6.674;2023-06-24T11:02:26;3.22;;;1.63;;
55212;SDS011;41083;52.932;6.674;2023-06-24T11:07:20;3.58;;;1.50;;
55212;SDS011;41083;52.932;6.674;2023-06-24T11:12:16;2.25;;;1.35;;
55212;SDS011;41083;52.932;6.674;2023-06-24T11:14:42;3.58;;;1.40;;
55212;SDS011;41083;52.932;6.674;2023-06-24T11:17:08;3.53;;;1.63;;
55212;SDS011;41083;52.932;6.674;2023-06-24T11:19:34;3.10;;;1.73;;
55212;SDS011;41083;52.932;6.674;2023-06-24T11:22:04;3.30;;;1.70;;
55212;SDS011;41083;52.932;6.674;2023-06-24T11:24:30;4.45;;;1.73;;
55212;SDS011;41083;52.932;6.674;2023-06-24T11:26:56;3.45;;;1.73;;
55212;SDS011;41083;52.932;6.674;2023-06-24T11:29:22;4.07;;;1.77;;
55212;SDS011;41083;52.932;6.674;2023-06-24T11:31:48;4.00;;;1.77;;
55212;SDS011;41083;52.932;6.674;2023-06-24T11:34:15;3.08;;;1.52;;
55212;SDS011;41083;52.932;6.674;2023-06-24T11:36:41;4.53;;;1.70;;
55212;SDS011;41083;52.932;6.674;2023-06-24T11:39:07;4.45;;;1.83;;
55212;SDS011;41083;52.932;6.674;2023-06-24T11:41:33;3.72;;;1.98;;
55212;SDS011;41083;52.932;6.674;2023-06-24T11:43:58;3.63;;;1.60;;
55212;SDS011;41083;52.932;6.674;2023-06-24T11:46:25;4.20;;;2.00;;
55212;SDS011;41083;52.932;6.674;2023-06-24T11:48:51;3.30;;;1.70;;
55212;SDS011;41083;52.932;6.674;2023-06-24T11:51:17;3.83;;;1.67;;
55212;SDS011;41083;52.932;6.674;2023-06-24T11:53:43;2.95;;;1.58;;
55212;SDS011;41083;52.932;6.674;2023-06-24T11:56:10;3.70;;;1.90;;
55212;SDS011;41083;52.932;6.674;2023-06-24T11:58:37;3.28;;;1.75;;
55212;SDS011;41083;52.932;6.674;2023-06-24T12:01:03;3.53;;;1.90;;
55212;SDS011;41083;52.932;6.674;2023-06-24T12:03:32;3.47;;;1.70;;
55212;SDS011;41083;52.932;6.674;2023-06-24T12:05:58;3.28;;;1.75;;
55212;SDS011;41083;52.932;6.674;2023-06-24T12:08:24;3.53;;;1.88;;
55212;SDS011;41083;52.932;6.674;2023-06-24T12:10:51;3.35;;;1.85;;
55212;SDS011;41083;52.932;6.674;2023-06-24T12:13:17;4.47;;;1.80;;
55212;SDS011;41083;52.932;6.674;2023-06-24T12:15:43;3.70;;;1.88;;
55212;SDS011;41083;52.932;6.674;2023-06-24T12:18:09;2.83;;;1.75;;
55212;SDS011;41083;52.932;6.674;2023-06-24T12:20:34;4.32;;;1.80;;
55212;SDS011;41083;52.932;6.674;2023-06-24T12:23:01;3.25;;;1.90;;
55212;SDS011;41083;52.932;6.674;2023-06-24T12:25:28;3.28;;;1.88;;
55212;SDS011;41083;52.932;6.674;2023-06-24T12:27:54;3.42;;;1.98;;
55212;SDS011;41083;52.932;6.674;2023-06-24T12:30:20;4.15;;;1.70;;
55212;SDS011;41083;52.932;6.674;2023-06-24T12:32:51;3.35;;;1.60;;
55212;SDS011;41083;52.932;6.674;2023-06-24T12:35:17;4.35;;;2.00;;
55212;SDS011;41083;52.932;6.674;2023-06-24T12:37:43;3.67;;;1.85;;
55212;SDS011;41083;52.932;6.674;2023-06-24T12:40:10;3.58;;;1.60;;
55212;SDS011;41083;52.932;6.674;2023-06-24T12:42:36;3.35;;;1.80;;
55212;SDS011;41083;52.932;6.674;2023-06-24T12:45:01;3.67;;;1.90;;
55212;SDS011;41083;52.932;6.674;2023-06-24T12:47:27;2.58;;;1.50;;
55212;SDS011;41083;52.932;6.674;2023-06-24T12:49:53;3.60;;;1.63;;
55212;SDS011;41083;52.932;6.674;2023-06-24T12:52:19;5.50;;;1.85;;
55212;SDS011;41083;52.932;6.674;2023-06-24T12:54:44;3.90;;;1.67;;
55212;SDS011;41083;52.932;6.674;2023-06-24T12:57:10;3.97;;;1.88;;
55212;SDS011;41083;52.932;6.674;2023-06-24T12:59:35;5.25;;;2.10;;
55212;SDS011;41083;52.932;6.674;2023-06-24T13:02:01;3.55;;;1.90;;
55212;SDS011;41083;52.932;6.674;2023-06-24T13:04:27;3.47;;;1.90;;
55212;SDS011;41083;52.932;6.674;2023-06-24T13:06:53;3.22;;;1.52;;
55212;SDS011;41083;52.932;6.674;2023-06-24T13:09:19;2.80;;;1.50;;
55212;SDS011;41083;52.932;6.674;2023-06-24T13:11:44;2.83;;;1.60;;
55212;SDS011;41083;52.932;6.674;2023-06-24T13:14:10;4.10;;;1.63;;
55212;SDS011;41083;52.932;6.674;2023-06-24T13:16:36;4.53;;;2.05;;
55212;SDS011;41083;52.932;6.674;2023-06-24T13:19:02;4.40;;;2.00;;
55212;SDS011;41083;52.932;6.674;2023-06-24T13:21:28;4.25;;;1.88;;
55212;SDS011;41083;52.932;6.674;2023-06-24T13:23:54;3.25;;;1.85;;
55212;SDS011;41083;52.932;6.674;2023-06-24T13:26:20;5.68;;;1.67;;
55212;SDS011;41083;52.932;6.674;2023-06-24T13:28:46;2.80;;;1.60;;
55212;SDS011;41083;52.932;6.674;2023-06-24T13:31:11;3.92;;;2.13;;
55212;SDS011;41083;52.932;6.674;2023-06-24T13:33:37;3.35;;;1.65;;
55212;SDS011;41083;52.932;6.674;2023-06-24T13:36:03;3.67;;;1.90;;
55212;SDS011;41083;52.932;6.674;2023-06-24T13:38:31;3.35;;;1.60;;
55212;SDS011;41083;52.932;6.674;2023-06-24T13:40:57;4.18;;;1.88;;
55212;SDS011;41083;52.932;6.674;2023-06-24T13:43:23;3.63;;;1.80;;
55212;SDS011;41083;52.932;6.674;2023-06-24T13:45:48;3.15;;;1.48;;
55212;SDS011;41083;52.932;6.674;2023-06-24T13:48:14;3.67;;;2.00;;
55212;SDS011;41083;52.932;6.674;2023-06-24T13:50:39;4.05;;;2.08;;
55212;SDS011;41083;52.932;6.674;2023-06-24T13:53:05;4.25;;;1.67;;
55212;SDS011;41083;52.932;6.674;2023-06-24T13:55:30;4.78;;;2.17;;
55212;SDS011;41083;52.932;6.674;2023-06-24T13:57:57;4.97;;;1.80;;
55212;SDS011;41083;52.932;6.674;2023-06-24T14:00:22;3.70;;;1.90;;
55212;SDS011;41083;52.932;6.674;2023-06-24T14:02:48;3.20;;;1.40;;
55212;SDS011;41083;52.932;6.674;2023-06-24T14:05:13;4.05;;;1.60;;
55212;SDS011;41083;52.932;6.674;2023-06-24T14:07:39;2.97;;;1.67;;
55212;SDS011;41083;52.932;6.674;2023-06-24T14:10:04;3.50;;;1.45;;
55212;SDS011;41083;52.932;6.674;2023-06-24T14:12:30;3.28;;;1.45;;
55212;SDS011;41083;52.932;6.674;2023-06-24T14:14:56;4.30;;;1.92;;
55212;SDS011;41083;52.932;6.674;2023-06-24T14:17:22;3.58;;;1.55;;
55212;SDS011;41083;52.932;6.674;2023-06-24T14:19:48;4.55;;;1.70;;
55212;SDS011;41083;52.932;6.674;2023-06-24T14:22:15;2.95;;;1.50;;
55212;SDS011;41083;52.932;6.674;2023-06-24T14:24:42;3.75;;;2.10;;
55212;SDS011;41083;52.932;6.674;2023-06-24T14:27:08;2.33;;;1.20;;
55212;SDS011;41083;52.932;6.674;2023-06-24T14:29:34;3.55;;;1.52;;
55212;SDS011;41083;52.932;6.674;2023-06-24T14:32:00;3.08;;;1.73;;
55212;SDS011;41083;52.932;6.674;2023-06-24T14:34:25;4.70;;;1.75;;
55212;SDS011;41083;52.932;6.674;2023-06-24T14:36:54;3.13;;;1.33;;
55212;SDS011;41083;52.932;6.674;2023-06-24T14:39:20;2.97;;;1.30;;
55212;SDS011;41083;52.932;6.674;2023-06-24T14:41:46;2.70;;;1.42;;
55212;SDS011;41083;52.932;6.674;2023-06-24T14:44:11;2.80;;;1.33;;
55212;SDS011;41083;52.932;6.674;2023-06-24T14:46:37;2.80;;;1.50;;
55212;SDS011;41083;52.932;6.674;2023-06-24T14:49:02;3.38;;;1.23;;
55212;SDS011;41083;52.932;6.674;2023-06-24T14:51:28;3.78;;;1.77;;
55212;SDS011;41083;52.932;6.674;2023-06-24T14:53:54;5.15;;;1.73;;
55212;SDS011;41083;52.932;6.674;2023-06-24T14:56:19;4.10;;;1.92;;
55212;SDS011;41083;52.932;6.674;2023-06-24T14:58:45;2.53;;;1.38;;
55212;SDS011;41083;52.932;6.674;2023-06-24T15:01:10;2.28;;;1.13;;
55212;SDS011;41083;52.932;6.674;2023-06-24T15:03:36;3.28;;;1.58;;
55212;SDS011;41083;52.932;6.674;2023-06-24T15:06:01;4.35;;;1.45;;
55212;SDS011;41083;52.932;6.674;2023-06-24T15:08:27;2.92;;;1.45;;
55212;SDS011;41083;52.932;6.674;2023-06-24T15:10:53;2.83;;;1.65;;
55212;SDS011;41083;52.932;6.674;2023-06-24T15:13:18;2.85;;;1.45;;
55212;SDS011;41083;52.932;6.674;2023-06-24T15:15:44;3.88;;;1.88;;
55212;SDS011;41083;52.932;6.674;2023-06-24T15:18:10;4.07;;;2.10;;